Portada
METAR-TAF:

METAR-TAF

Aeroports :

Lo Mont, França

latitud: 43-55N, longitud: 000-30W, altitud: 62 m

Observació

L'informe es va fer fa 10 minuts, a les 17:00 UTC
Vent 8 kt del Oest, variant entre Oest/Sud-Oest i Nord-Oest
Temperatura 23°C
Humitat 69%
Pressió 1025 hPa
Visibilitat 10 km o més
Escasses núvols a una alçada de 2200 ft
Cel ennuvolat a una alçada de 6400 ft

METAR: LFBM 181700Z AUTO 28008KT 250V310 9999 FEW022 BKN064 23/17 Q1025 NOSIG

Hora: 19:10 (17:10 UTC)

Pronòstic

L'informe es va fer fa 3 hores i 10 minuts, a les 14:00 UTC
Pronòstic vàlid del 18 a les 15 UTC al 19 a les 15 UTC
Vent 8 kt del Oest
Visibilitat 10 km o més
Núvols disperses a una alçada de 2500 ft
Cel ennuvolat a una alçada de 4000 ft

TAF: LFBM 181400Z 1815/1915 27008KT 9999 SCT025 BKN040

Observacions i pronòstics meteorològics de més de 4000 aeroports (METAR i TAF).

Les estacions disponibles són els punts grocs i vermells al mapa.

Posi el ratolí al punt desitjat per veure el nom de l'estació.

Feu clic per veure les observacions i els pronòstics meteorològics.

Per canviar el mapa: feu clic els botons verds amb una creu de color negre per apropar; al botó verd amb un guió per allunyar la imatge; o en les fletxes verdes per a mapes adjacents.


METAR-TAF: